createdAt,value
2019-05-22T00:00:03.080Z,12.40
2019-05-22T00:02:34.957Z,12.40
2019-05-22T00:05:05.788Z,12.40
2019-05-22T00:07:35.085Z,12.30
2019-05-22T00:10:04.103Z,12.30
2019-05-22T00:12:46.101Z,12.30
2019-05-22T00:15:03.609Z,12.30
2019-05-22T00:17:32.017Z,12.20
2019-05-22T00:20:00.465Z,12.20
2019-05-22T00:22:31.503Z,12.20
2019-05-22T00:25:00.832Z,12.20
2019-05-22T00:27:30.254Z,12.20
2019-05-22T00:29:59.815Z,12.20
2019-05-22T00:32:28.862Z,12.20
2019-05-22T00:34:56.544Z,12.20
2019-05-22T00:37:25.524Z,12.20
2019-05-22T00:39:54.200Z,12.20
2019-05-22T00:42:23.547Z,12.10
2019-05-22T00:44:51.468Z,12.20
2019-05-22T00:47:19.848Z,12.10
2019-05-22T00:49:49.122Z,12.10
2019-05-22T00:52:22.578Z,12.10
2019-05-22T00:54:51.866Z,12.10
2019-05-22T00:57:29.548Z,12.10
2019-05-22T00:59:58.902Z,12.10
2019-05-22T01:02:30.964Z,12.10
2019-05-22T01:04:59.664Z,12.10
2019-05-22T01:07:31.936Z,12.10
2019-05-22T01:09:59.676Z,12.10
2019-05-22T01:12:32.975Z,12.10
2019-05-22T01:15:04.217Z,12.00
2019-05-22T01:17:34.055Z,12.00
2019-05-22T01:20:02.879Z,12.00
2019-05-22T01:22:32.928Z,12.00
2019-05-22T01:25:00.635Z,12.00
2019-05-22T01:27:29.960Z,12.00
2019-05-22T01:29:59.982Z,12.00
2019-05-22T01:32:47.671Z,12.00
2019-05-22T01:35:16.447Z,11.90
2019-05-22T01:37:44.268Z,11.90
2019-05-22T01:40:15.111Z,11.90
2019-05-22T01:42:45.684Z,11.90
2019-05-22T01:45:14.964Z,11.90
2019-05-22T01:47:44.932Z,11.80
2019-05-22T01:50:15.682Z,11.90
2019-05-22T01:52:43.327Z,11.90
2019-05-22T01:55:13.380Z,11.90
2019-05-22T01:57:41.092Z,11.90
2019-05-22T02:00:11.685Z,11.80
2019-05-22T02:02:41.938Z,11.90
2019-05-22T02:05:12.155Z,11.90
2019-05-22T02:07:41.702Z,11.80
2019-05-22T02:10:10.952Z,11.90
2019-05-22T02:12:43.933Z,11.90
2019-05-22T02:15:12.623Z,11.90
2019-05-22T02:17:41.633Z,11.80
2019-05-22T02:20:11.143Z,11.80
2019-05-22T02:22:40.649Z,11.80
2019-05-22T02:25:08.360Z,11.80
2019-05-22T02:27:37.722Z,11.70
2019-05-22T02:30:06.056Z,11.70
2019-05-22T02:32:33.941Z,11.70
2019-05-22T02:35:02.661Z,11.80
2019-05-22T02:37:30.366Z,11.70
2019-05-22T02:39:58.347Z,11.80
2019-05-22T02:42:28.325Z,11.70
2019-05-22T02:44:56.627Z,11.70
2019-05-22T02:47:24.919Z,11.70
2019-05-22T02:49:54.279Z,11.70
2019-05-22T02:52:22.292Z,11.70
2019-05-22T02:54:50.494Z,11.70
2019-05-22T02:57:18.132Z,11.70
2019-05-22T02:59:45.896Z,11.60
2019-05-22T03:02:14.185Z,11.70
2019-05-22T03:04:53.432Z,11.70
2019-05-22T03:07:22.713Z,11.70
2019-05-22T03:09:50.779Z,11.70
2019-05-22T03:12:19.798Z,11.70
2019-05-22T03:14:48.668Z,11.80
2019-05-22T03:17:21.473Z,11.70
2019-05-22T03:19:50.756Z,11.80
2019-05-22T03:22:21.286Z,11.70
2019-05-22T03:24:49.740Z,11.70
2019-05-22T03:27:18.990Z,11.70
2019-05-22T03:29:51.648Z,11.70
2019-05-22T03:32:19.544Z,11.60
2019-05-22T03:34:47.192Z,11.60
2019-05-22T03:37:15.412Z,11.60
2019-05-22T03:39:43.066Z,11.70
2019-05-22T03:42:13.079Z,11.60
2019-05-22T03:44:40.808Z,11.60
2019-05-22T03:47:08.536Z,11.60
2019-05-22T03:49:37.228Z,11.60
2019-05-22T03:52:06.111Z,11.60
2019-05-22T03:54:35.182Z,11.60
2019-05-22T03:57:04.430Z,11.60
2019-05-22T03:59:32.308Z,11.60
2019-05-22T04:02:00.421Z,11.60
2019-05-22T04:04:39.294Z,11.60
2019-05-22T04:07:08.488Z,11.60
2019-05-22T04:09:39.178Z,11.60
2019-05-22T04:12:08.072Z,11.70
2019-05-22T04:14:37.650Z,11.60
2019-05-22T04:17:07.033Z,11.60
2019-05-22T04:19:48.789Z,11.60
2019-05-22T04:22:04.495Z,11.60
2019-05-22T04:24:32.142Z,11.60
2019-05-22T04:27:00.948Z,11.70
2019-05-22T04:29:28.663Z,11.60
2019-05-22T04:31:57.951Z,11.70
2019-05-22T04:34:26.228Z,11.70
2019-05-22T04:36:53.887Z,11.70
2019-05-22T04:39:22.402Z,11.70
2019-05-22T04:41:50.460Z,11.80
2019-05-22T04:44:18.094Z,11.80
2019-05-22T04:46:45.742Z,11.90
2019-05-22T04:49:14.220Z,11.90
2019-05-22T04:51:41.934Z,11.80
2019-05-22T04:54:09.578Z,11.80
2019-05-22T04:56:37.258Z,11.80
2019-05-22T04:59:05.252Z,11.80
2019-05-22T05:01:32.961Z,11.70
2019-05-22T05:04:01.240Z,11.70
2019-05-22T05:06:29.701Z,11.80
2019-05-22T05:08:57.808Z,11.80
2019-05-22T05:11:26.098Z,11.90
2019-05-22T05:13:53.979Z,11.90
2019-05-22T05:16:21.606Z,11.90
2019-05-22T05:18:49.274Z,11.90
2019-05-22T05:21:16.907Z,11.90
2019-05-22T05:23:44.623Z,11.90
2019-05-22T05:26:12.339Z,11.90
2019-05-22T05:28:40.247Z,11.90
2019-05-22T05:31:07.928Z,11.90
2019-05-22T05:33:37.210Z,12.00
2019-05-22T05:36:05.397Z,11.90
2019-05-22T05:38:37.038Z,11.90
2019-05-22T05:41:04.750Z,11.90
2019-05-22T05:43:33.179Z,11.90
2019-05-22T05:46:00.827Z,11.90
2019-05-22T05:48:28.822Z,11.90
2019-05-22T05:50:58.351Z,11.90
2019-05-22T05:53:26.876Z,11.90
2019-05-22T05:56:00.557Z,12.00
2019-05-22T05:58:28.448Z,11.90
2019-05-22T06:01:17.111Z,11.90
2019-05-22T06:03:45.028Z,12.00
2019-05-22T06:06:24.170Z,12.00
2019-05-22T06:08:52.659Z,12.00
2019-05-22T06:11:32.567Z,12.10
2019-05-22T06:14:01.093Z,12.10
2019-05-22T06:16:50.018Z,12.20
2019-05-22T06:19:18.149Z,12.20
2019-05-22T06:21:47.647Z,12.20
2019-05-22T06:24:17.702Z,12.70
2019-05-22T06:26:46.947Z,12.20
2019-05-22T06:29:15.631Z,12.20
2019-05-22T06:31:47.955Z,12.10
2019-05-22T06:34:35.747Z,12.20
2019-05-22T06:37:21.376Z,12.20
2019-05-22T06:39:49.091Z,12.20
2019-05-22T06:42:16.744Z,12.20
2019-05-22T06:44:44.797Z,12.20
2019-05-22T06:47:13.899Z,12.20
2019-05-22T06:49:42.011Z,12.20
2019-05-22T06:52:09.707Z,12.30
2019-05-22T06:54:38.277Z,12.10
2019-05-22T06:57:08.481Z,12.20
2019-05-22T06:59:36.284Z,12.20
2019-05-22T07:02:05.656Z,12.20
2019-05-22T07:04:33.911Z,12.20
2019-05-22T07:07:03.391Z,12.30
2019-05-22T07:09:31.708Z,12.30
2019-05-22T07:11:59.655Z,12.30
2019-05-22T07:14:28.544Z,12.30
2019-05-22T07:16:57.791Z,12.30
2019-05-22T07:19:27.971Z,12.30
2019-05-22T07:21:56.455Z,12.30
2019-05-22T07:24:24.831Z,12.30
2019-05-22T07:26:53.040Z,12.40
2019-05-22T07:29:20.947Z,12.40
2019-05-22T07:31:50.064Z,12.30
2019-05-22T07:34:18.938Z,12.30
2019-05-22T07:36:46.594Z,12.30
2019-05-22T07:39:14.304Z,12.40
2019-05-22T07:41:42.015Z,12.60
2019-05-22T07:44:09.756Z,12.60
2019-05-22T07:46:38.535Z,12.60
2019-05-22T07:49:06.240Z,12.70
2019-05-22T07:51:50.401Z,12.80
2019-05-22T07:54:05.719Z,12.70
2019-05-22T07:56:33.438Z,12.80
2019-05-22T07:59:02.031Z,13.00
2019-05-22T08:01:30.044Z,13.20
2019-05-22T08:06:25.314Z,13.30
2019-05-22T08:08:54.291Z,13.60
2019-05-22T08:11:22.226Z,13.80
2019-05-22T08:13:50.334Z,13.90
2019-05-22T08:16:18.051Z,13.90
2019-05-22T08:18:46.259Z,14.10
2019-05-22T08:21:13.979Z,14.10
2019-05-22T08:23:41.992Z,13.90
2019-05-22T08:26:11.358Z,14.20
2019-05-22T08:28:39.447Z,14.20
2019-05-22T08:31:08.914Z,14.20
2019-05-22T08:33:36.807Z,14.10
2019-05-22T08:36:04.870Z,14.00
2019-05-22T08:38:33.563Z,14.00
2019-05-22T08:41:02.536Z,13.90
2019-05-22T08:43:30.930Z,13.60
2019-05-22T08:45:59.311Z,13.60
2019-05-22T08:48:27.951Z,13.70
2019-05-22T08:50:56.927Z,13.50
2019-05-22T08:53:24.741Z,13.50
2019-05-22T08:55:52.616Z,13.40
2019-05-22T08:58:20.264Z,13.30
2019-05-22T09:00:48.371Z,13.50
2019-05-22T09:03:16.265Z,13.50
2019-05-22T09:05:44.173Z,13.60
2019-05-22T09:08:11.946Z,13.80
2019-05-22T09:10:39.585Z,13.70
2019-05-22T09:13:07.394Z,13.60
2019-05-22T09:15:37.137Z,13.70
2019-05-22T09:18:04.864Z,13.60
2019-05-22T09:20:48.001Z,14.50
2019-05-22T09:23:02.053Z,13.90
2019-05-22T09:25:30.413Z,13.70
2019-05-22T09:27:58.595Z,14.00
2019-05-22T09:30:27.003Z,14.20
2019-05-22T09:32:55.991Z,14.30
2019-05-22T09:35:24.023Z,14.10
2019-05-22T09:37:51.730Z,14.30
2019-05-22T09:40:19.462Z,14.20
2019-05-22T09:42:47.510Z,14.40
2019-05-22T09:45:15.354Z,14.50
2019-05-22T09:47:42.995Z,14.80
2019-05-22T09:55:06.206Z,16.00
2019-05-22T09:57:35.507Z,16.20
2019-05-22T10:00:05.463Z,16.30
2019-05-22T10:02:33.642Z,16.10
2019-05-22T10:05:01.305Z,15.70
2019-05-22T10:07:29.128Z,16.00
2019-05-22T10:09:56.767Z,15.60
2019-05-22T10:12:25.446Z,15.90
2019-05-22T10:14:53.267Z,16.10
2019-05-22T10:17:21.074Z,15.90
2019-05-22T10:19:49.096Z,15.70
2019-05-22T10:22:17.006Z,15.70
2019-05-22T10:24:49.658Z,15.30
2019-05-22T10:27:15.206Z,14.90
2019-05-22T10:29:43.137Z,14.80
2019-05-22T10:32:10.764Z,14.70
2019-05-22T10:34:38.420Z,14.80
2019-05-22T10:37:06.714Z,14.80
2019-05-22T10:39:34.834Z,15.00
2019-05-22T10:42:02.480Z,15.20
2019-05-22T10:44:30.229Z,15.30
2019-05-22T10:46:57.866Z,15.40
2019-05-22T10:49:25.583Z,15.20
2019-05-22T10:51:53.227Z,15.30
2019-05-22T10:54:21.211Z,15.20
2019-05-22T10:56:48.851Z,15.30
2019-05-22T10:59:16.556Z,15.50
2019-05-22T11:01:44.555Z,15.20
2019-05-22T11:04:12.211Z,15.10
2019-05-22T11:06:39.839Z,15.30
2019-05-22T11:09:09.295Z,15.40
2019-05-22T11:11:37.581Z,15.40
2019-05-22T11:14:09.309Z,15.50
2019-05-22T11:16:35.026Z,15.70
2019-05-22T11:19:03.755Z,16.10
2019-05-22T11:21:32.456Z,15.80
2019-05-22T11:24:00.536Z,15.60
2019-05-22T11:26:28.351Z,15.80
2019-05-22T11:28:56.344Z,15.90
2019-05-22T11:31:24.192Z,16.00
2019-05-22T11:33:51.891Z,15.90
2019-05-22T11:36:19.534Z,15.70
2019-05-22T11:38:47.247Z,15.80
2019-05-22T11:41:15.914Z,15.60
2019-05-22T11:43:43.837Z,15.70
2019-05-22T11:46:11.478Z,16.00
2019-05-22T11:48:39.118Z,16.30
2019-05-22T11:51:06.834Z,16.20
2019-05-22T11:53:35.239Z,16.20
2019-05-22T11:56:02.961Z,15.80
2019-05-22T11:58:30.618Z,16.00
2019-05-22T12:00:58.502Z,16.30
2019-05-22T12:03:26.813Z,16.30
2019-05-22T12:05:54.647Z,16.20
2019-05-22T12:08:22.404Z,16.00
2019-05-22T12:10:50.923Z,16.10
2019-05-22T12:13:18.566Z,15.90
2019-05-22T12:15:46.512Z,15.80
2019-05-22T12:18:14.716Z,15.70
2019-05-22T12:20:42.600Z,15.50
2019-05-22T12:23:10.507Z,15.40
2019-05-22T12:25:38.639Z,15.20
2019-05-22T12:28:06.269Z,15.10
2019-05-22T12:30:34.552Z,15.20
2019-05-22T12:33:02.673Z,15.30
2019-05-22T12:35:30.880Z,15.20
2019-05-22T12:37:59.154Z,15.10
2019-05-22T12:40:29.711Z,15.10
2019-05-22T12:42:58.959Z,15.10
2019-05-22T12:45:28.703Z,15.40
2019-05-22T12:47:56.540Z,15.90
2019-05-22T12:50:26.323Z,16.70
2019-05-22T12:52:53.983Z,18.10
2019-05-22T13:00:18.541Z,19.30
2019-05-22T13:02:46.563Z,19.50
2019-05-22T13:05:14.843Z,19.60
2019-05-22T13:07:42.644Z,18.90
2019-05-22T13:10:10.726Z,18.80
2019-05-22T13:15:10.575Z,18.60
2019-05-22T13:17:37.826Z,19.30
2019-05-22T13:20:07.534Z,19.20
2019-05-22T13:22:37.242Z,19.00
2019-05-22T13:25:07.265Z,18.80
2019-05-22T13:27:36.048Z,18.90
2019-05-22T13:30:05.113Z,18.50
2019-05-22T13:32:35.216Z,18.10
2019-05-22T13:35:04.747Z,17.70
2019-05-22T13:37:32.823Z,17.40
2019-05-22T13:40:00.560Z,17.60
2019-05-22T13:42:28.356Z,17.90
2019-05-22T13:44:56.335Z,17.80
2019-05-22T13:47:24.256Z,17.80
2019-05-22T13:49:51.976Z,17.80
2019-05-22T13:52:19.743Z,17.60
2019-05-22T13:54:47.439Z,17.80
2019-05-22T13:57:15.366Z,17.80
2019-05-22T13:59:43.359Z,17.70
2019-05-22T14:02:11.216Z,17.30
2019-05-22T14:09:34.919Z,16.40
2019-05-22T14:12:03.230Z,16.30
2019-05-22T14:14:31.054Z,16.20
2019-05-22T14:16:58.846Z,16.00
2019-05-22T14:19:26.496Z,15.70
2019-05-22T14:21:54.251Z,15.60
2019-05-22T14:26:49.730Z,15.40
2019-05-22T14:29:17.847Z,15.40
2019-05-22T14:31:45.498Z,15.40
2019-05-22T14:34:13.475Z,15.50
2019-05-22T14:36:41.650Z,15.40
2019-05-22T14:39:10.146Z,15.30
2019-05-22T14:41:37.796Z,15.30
2019-05-22T14:44:05.514Z,15.40
2019-05-22T14:46:33.159Z,15.40
2019-05-22T14:49:01.280Z,15.40
2019-05-22T14:51:29.489Z,15.50
2019-05-22T14:53:57.413Z,15.50
2019-05-22T14:56:25.280Z,15.50
2019-05-22T14:58:53.862Z,15.50
2019-05-22T15:01:22.243Z,15.70
2019-05-22T15:03:50.123Z,15.80
2019-05-22T15:06:18.708Z,15.80
2019-05-22T15:08:46.436Z,15.80
2019-05-22T15:11:15.102Z,15.60
2019-05-22T15:13:42.959Z,15.40
2019-05-22T15:16:11.083Z,15.30
2019-05-22T15:18:38.782Z,15.40
2019-05-22T15:21:08.669Z,15.30
2019-05-22T15:23:37.126Z,15.30
2019-05-22T15:26:04.850Z,15.40
2019-05-22T15:28:32.498Z,15.60
2019-05-22T15:31:01.200Z,15.50
2019-05-22T15:33:29.166Z,15.60
2019-05-22T15:35:56.953Z,15.80
2019-05-22T15:38:24.678Z,15.80
2019-05-22T15:40:53.699Z,15.80
2019-05-22T15:43:22.842Z,15.60
2019-05-22T15:45:50.819Z,15.40
2019-05-22T15:48:20.290Z,15.20
2019-05-22T15:53:15.568Z,15.20
2019-05-22T15:55:44.759Z,15.10
2019-05-22T15:58:13.924Z,15.10
2019-05-22T16:00:44.405Z,15.40
2019-05-22T16:03:18.288Z,15.20
2019-05-22T16:05:46.476Z,15.00
2019-05-22T16:08:14.649Z,15.00
2019-05-22T16:10:43.137Z,15.00
2019-05-22T16:13:12.412Z,15.10
2019-05-22T16:15:41.708Z,15.20
2019-05-22T16:18:12.313Z,15.30
2019-05-22T16:20:41.243Z,15.10
2019-05-22T16:23:10.796Z,15.30
2019-05-22T16:25:38.510Z,15.50
2019-05-22T16:28:06.321Z,15.60
2019-05-22T16:30:34.139Z,15.60
2019-05-22T16:33:01.997Z,15.60
2019-05-22T16:35:30.572Z,15.80
2019-05-22T16:37:58.279Z,15.60
2019-05-22T16:40:27.593Z,15.70
2019-05-22T16:42:56.690Z,15.90
2019-05-22T16:45:24.963Z,15.90
2019-05-22T16:47:53.299Z,15.80
2019-05-22T16:50:21.586Z,16.00
2019-05-22T16:52:49.400Z,16.10
2019-05-22T16:55:17.878Z,16.10
2019-05-22T16:57:45.804Z,16.00
2019-05-22T17:00:16.075Z,16.30
2019-05-22T17:02:44.207Z,16.40
2019-05-22T17:05:13.680Z,16.00
2019-05-22T17:07:42.767Z,15.80
2019-05-22T17:10:10.876Z,15.80
2019-05-22T17:12:39.469Z,16.10
2019-05-22T17:15:08.803Z,16.30
2019-05-22T17:17:36.452Z,16.10
2019-05-22T17:20:08.739Z,16.10
2019-05-22T17:22:36.455Z,16.30
2019-05-22T17:25:06.672Z,16.10
2019-05-22T17:27:35.256Z,16.20
2019-05-22T17:30:06.185Z,16.10
2019-05-22T17:32:34.335Z,16.00
2019-05-22T17:35:02.008Z,16.10
2019-05-22T17:37:30.504Z,16.10
2019-05-22T17:39:58.135Z,15.90
2019-05-22T17:42:27.923Z,15.80
2019-05-22T17:44:55.627Z,15.60
2019-05-22T17:47:24.690Z,15.60
2019-05-22T17:49:52.765Z,15.70
2019-05-22T17:52:21.972Z,15.70
2019-05-22T17:54:50.922Z,15.70
2019-05-22T17:57:19.211Z,15.80
2019-05-22T17:59:46.929Z,15.70
2019-05-22T18:02:16.286Z,15.60
2019-05-22T18:04:43.922Z,15.60
2019-05-22T18:07:11.823Z,15.50
2019-05-22T18:09:39.746Z,15.40
2019-05-22T18:12:09.208Z,15.30
2019-05-22T18:14:36.832Z,15.20
2019-05-22T18:17:04.944Z,15.10
2019-05-22T18:19:33.003Z,15.00
2019-05-22T18:22:00.935Z,14.80
2019-05-22T18:26:55.966Z,14.40
2019-05-22T18:29:23.623Z,14.30
2019-05-22T18:31:51.256Z,14.20
2019-05-22T18:34:19.066Z,14.10
2019-05-22T18:36:46.782Z,14.10
2019-05-22T18:39:16.299Z,13.90
2019-05-22T18:41:43.926Z,13.80
2019-05-22T18:44:11.594Z,13.60
2019-05-22T18:46:39.291Z,13.50
2019-05-22T18:49:06.936Z,13.30
2019-05-22T18:54:02.075Z,12.90
2019-05-22T18:56:29.879Z,12.80
2019-05-22T18:58:57.601Z,12.80
2019-05-22T19:01:25.307Z,12.70
2019-05-22T19:03:53.598Z,12.30
2019-05-22T19:06:30.378Z,12.20
2019-05-22T19:08:51.298Z,12.10
2019-05-22T19:11:19.007Z,12.00
2019-05-22T19:13:46.932Z,11.90
2019-05-22T19:16:14.635Z,11.80
2019-05-22T19:18:42.286Z,11.60
2019-05-22T19:21:10.599Z,11.50
2019-05-22T19:23:38.267Z,11.40
2019-05-22T19:26:06.175Z,11.40
2019-05-22T19:28:43.269Z,11.30
2019-05-22T19:31:04.678Z,11.40
2019-05-22T19:33:32.352Z,11.50
2019-05-22T19:36:00.128Z,11.60
2019-05-22T19:38:27.828Z,11.40
2019-05-22T19:40:55.475Z,11.40
2019-05-22T19:43:23.579Z,11.50
2019-05-22T19:45:51.378Z,11.60
2019-05-22T19:48:19.297Z,11.70
2019-05-22T19:50:47.923Z,11.80
2019-05-22T19:53:19.283Z,11.80
2019-05-22T19:55:46.571Z,11.80
2019-05-22T19:58:14.974Z,11.80
2019-05-22T20:00:44.272Z,11.70
2019-05-22T20:03:12.132Z,11.80
2019-05-22T20:05:39.851Z,11.70
2019-05-22T20:08:07.553Z,11.70
2019-05-22T20:10:35.580Z,11.70
2019-05-22T20:13:05.564Z,11.60
2019-05-22T20:15:33.792Z,11.50
2019-05-22T20:18:01.696Z,11.40
2019-05-22T20:20:29.727Z,11.40
2019-05-22T20:22:58.125Z,11.30
2019-05-22T20:25:26.609Z,11.30
2019-05-22T20:27:54.489Z,11.10
2019-05-22T20:30:22.681Z,11.20
2019-05-22T20:32:50.805Z,11.30
2019-05-22T20:35:18.619Z,11.40
2019-05-22T20:37:46.635Z,11.50
2019-05-22T20:40:14.496Z,11.50
2019-05-22T20:42:42.448Z,11.50
2019-05-22T20:45:10.539Z,11.40
2019-05-22T20:47:39.217Z,11.30
2019-05-22T20:50:11.158Z,11.30
2019-05-22T20:52:39.837Z,11.30
2019-05-22T20:55:07.735Z,11.30
2019-05-22T20:57:35.554Z,11.20
2019-05-22T21:00:04.386Z,11.20
2019-05-22T21:02:33.771Z,11.10
2019-05-22T21:07:30.696Z,11.00
2019-05-22T21:12:26.316Z,10.70
2019-05-22T21:14:54.585Z,10.60
2019-05-22T21:17:22.599Z,10.50
2019-05-22T21:22:19.515Z,10.40
2019-05-22T21:24:47.698Z,10.30
2019-05-22T21:27:16.316Z,10.20
2019-05-22T21:32:13.263Z,10.10
2019-05-22T21:44:33.167Z,9.80
2019-05-22T21:47:00.815Z,9.70
2019-05-22T21:51:57.250Z,9.50
2019-05-22T21:59:20.156Z,9.50
2019-05-22T22:01:55.095Z,9.40
2019-05-22T22:04:24.640Z,9.20
2019-05-22T22:06:53.593Z,9.20
2019-05-22T22:09:22.951Z,9.10
2019-05-22T22:11:52.567Z,9.20
2019-05-22T22:14:20.781Z,9.20
2019-05-22T22:16:50.275Z,9.20
2019-05-22T22:19:18.261Z,9.10
2019-05-22T22:21:45.901Z,9.10
2019-05-22T22:24:13.547Z,9.00
2019-05-22T22:26:41.458Z,8.90
2019-05-22T22:29:10.122Z,8.90
2019-05-22T22:31:38.086Z,8.90
2019-05-22T22:34:13.229Z,8.80
2019-05-22T22:36:41.607Z,8.80
2019-05-22T22:39:11.794Z,8.70
2019-05-22T22:41:40.966Z,8.70
2019-05-22T22:44:10.158Z,8.60
2019-05-22T22:49:08.332Z,8.60
2019-05-22T22:51:37.491Z,8.50
2019-05-22T22:54:06.894Z,8.40
2019-05-22T22:56:35.057Z,8.40
2019-05-22T22:59:03.176Z,8.30
2019-05-22T23:04:00.888Z,8.30
2019-05-22T23:06:30.056Z,8.20
2019-05-22T23:13:55.108Z,8.20
2019-05-22T23:16:23.572Z,8.30
2019-05-22T23:18:58.655Z,8.10
2019-05-22T23:21:25.735Z,8.00
2019-05-22T23:23:53.403Z,7.90
2019-05-22T23:26:22.475Z,8.00
2019-05-22T23:28:50.134Z,7.90
2019-05-22T23:31:18.653Z,8.00
2019-05-22T23:33:46.363Z,8.00
2019-05-22T23:36:14.923Z,8.20
2019-05-22T23:51:05.901Z,7.80
2019-05-22T23:53:35.312Z,7.60
2019-05-22T23:56:04.442Z,7.80
2019-05-22T23:58:32.139Z,7.60
